createdAt,value
2022-08-20T00:01:05.791Z,101184.53
2022-08-20T00:03:38.509Z,101189.34
2022-08-20T00:06:05.682Z,101185.78
2022-08-20T00:08:32.384Z,101187.59
2022-08-20T00:11:00.152Z,101185.44
2022-08-20T00:13:33.644Z,101188.75
2022-08-20T00:16:00.757Z,101196.06
2022-08-20T00:18:27.608Z,101197.91
2022-08-20T00:20:55.583Z,101194.47
2022-08-20T00:23:24.026Z,101198.31
2022-08-20T00:25:52.627Z,101203.59
2022-08-20T00:28:19.492Z,101209.31
2022-08-20T00:30:46.981Z,101204.03
2022-08-20T00:33:19.862Z,101203.84
2022-08-20T00:35:50.292Z,101204.84
2022-08-20T00:38:17.071Z,101210.56
2022-08-20T00:40:47.999Z,101201.63
2022-08-20T00:43:29.452Z,101209.31
2022-08-20T00:45:57.451Z,101198.56
2022-08-20T00:48:26.852Z,101200.16
2022-08-20T00:50:58.958Z,101193.66
2022-08-20T00:53:26.857Z,101190.19
2022-08-20T00:55:53.530Z,101190.66
2022-08-20T00:58:20.197Z,101197.75
2022-08-20T01:00:49.623Z,101193.50
2022-08-20T01:03:20.462Z,101195.09
2022-08-20T01:05:49.887Z,101195.69
2022-08-20T01:08:19.505Z,101200.38
2022-08-20T01:10:49.113Z,101204.03
2022-08-20T01:13:23.788Z,101199.81
2022-08-20T01:15:55.142Z,101197.16
2022-08-20T01:18:26.513Z,101192.72
2022-08-20T01:20:58.497Z,101194.72
2022-08-20T01:23:54.477Z,101197.38
2022-08-20T01:26:25.636Z,101196.59
2022-08-20T01:29:27.961Z,101205.91
2022-08-20T01:32:01.153Z,101208.16
2022-08-20T01:34:28.953Z,101209.41
2022-08-20T01:36:57.966Z,101198.84
2022-08-20T01:39:32.287Z,101198.66
2022-08-20T01:42:17.820Z,101196.22
2022-08-20T01:44:47.068Z,101211.47
2022-08-20T01:47:21.537Z,101208.50
2022-08-20T01:49:55.582Z,101203.88
2022-08-20T01:52:33.445Z,101201.25
2022-08-20T01:55:00.190Z,101206.72
2022-08-20T01:57:27.432Z,101206.97
2022-08-20T01:59:54.321Z,101209.16
2022-08-20T02:02:21.692Z,101215.22
2022-08-20T02:04:48.582Z,101215.44
2022-08-20T02:07:22.629Z,101213.72
2022-08-20T02:09:50.048Z,101213.09
2022-08-20T02:12:17.677Z,101216.78
2022-08-20T02:14:48.842Z,101208.50
2022-08-20T02:17:15.819Z,101208.72
2022-08-20T02:19:49.050Z,101212.19
2022-08-20T02:22:26.097Z,101218.47
2022-08-20T02:24:52.924Z,101219.13
2022-08-20T02:27:23.438Z,101222.22
2022-08-20T02:29:51.394Z,101221.41
2022-08-20T02:32:24.817Z,101224.50
2022-08-20T02:35:02.278Z,101229.03
2022-08-20T02:37:29.505Z,101230.06
2022-08-20T02:39:56.123Z,101227.44
2022-08-20T02:42:22.879Z,101225.81
2022-08-20T02:44:49.511Z,101224.56
2022-08-20T02:47:17.194Z,101228.22
2022-08-20T02:49:43.856Z,101228.44
2022-08-20T02:52:11.044Z,101221.78
2022-08-20T02:54:37.785Z,101222.22
2022-08-20T02:57:05.199Z,101223.03
2022-08-20T02:59:31.736Z,101217.56
2022-08-20T03:01:59.699Z,101218.56
2022-08-20T03:04:29.020Z,101219.38
2022-08-20T03:06:55.880Z,101222.22
2022-08-20T03:09:22.515Z,101223.25
2022-08-20T03:11:49.342Z,101222.00
2022-08-20T03:14:15.982Z,101221.19
2022-08-20T03:16:43.155Z,101223.84
2022-08-20T03:19:09.747Z,101224.84
2022-08-20T03:21:36.800Z,101228.75
2022-08-20T03:24:03.690Z,101236.06
2022-08-20T03:26:30.271Z,101240.31
2022-08-20T03:28:57.291Z,101238.69
2022-08-20T03:31:23.902Z,101239.72
2022-08-20T03:33:53.016Z,101245.00
2022-08-20T03:36:22.074Z,101243.19
2022-08-20T03:38:48.884Z,101242.94
2022-08-20T03:41:15.501Z,101245.34
2022-08-20T03:43:42.300Z,101254.72
2022-08-20T03:46:22.853Z,101254.97
2022-08-20T03:48:56.340Z,101256.63
2022-08-20T03:51:30.525Z,101249.31
2022-08-20T03:53:57.646Z,101248.72
2022-08-20T03:56:24.272Z,101246.31
2022-08-20T03:58:51.062Z,101242.28
2022-08-20T04:01:45.481Z,101240.66
2022-08-20T04:04:04.800Z,101230.34
2022-08-20T04:06:31.699Z,101235.00
2022-08-20T04:08:58.504Z,101237.06
2022-08-20T04:11:25.021Z,101231.19
2022-08-20T04:13:51.757Z,101236.47
2022-08-20T04:16:19.431Z,101247.22
2022-08-20T04:18:56.272Z,101242.41
2022-08-20T04:21:32.795Z,101246.03
2022-08-20T04:24:03.180Z,101253.78
2022-08-20T04:26:30.659Z,101245.53
2022-08-20T04:28:57.356Z,101246.97
2022-08-20T04:31:33.452Z,101244.19
2022-08-20T04:34:04.698Z,101249.88
2022-08-20T04:36:31.409Z,101252.94
2022-08-20T04:38:58.047Z,101260.47
2022-08-20T04:41:24.634Z,101257.03
2022-08-20T04:43:54.033Z,101259.28
2022-08-20T04:46:23.301Z,101263.34
2022-08-20T04:48:50.315Z,101266.22
2022-08-20T04:51:18.179Z,101270.66
2022-08-20T04:53:53.174Z,101284.88
2022-08-20T04:56:26.076Z,101285.88
2022-08-20T04:58:55.154Z,101284.28
2022-08-20T05:01:23.821Z,101276.38
2022-08-20T05:03:53.647Z,101281.84
2022-08-20T05:06:22.026Z,101301.91
2022-08-20T05:08:48.662Z,101293.78
2022-08-20T05:11:34.052Z,101295.59
2022-08-20T05:14:02.496Z,101302.72
2022-08-20T05:16:29.635Z,101297.00
2022-08-20T05:18:56.262Z,101301.84
2022-08-20T05:21:22.962Z,101307.34
2022-08-20T05:23:50.600Z,101303.44
2022-08-20T05:26:20.117Z,101307.47
2022-08-20T05:28:54.235Z,101309.91
2022-08-20T05:31:31.494Z,101313.38
2022-08-20T05:34:11.004Z,101305.28
2022-08-20T05:36:40.744Z,101305.66
2022-08-20T05:39:08.855Z,101311.47
2022-08-20T05:41:35.542Z,101314.19
2022-08-20T05:44:02.303Z,101310.56
2022-08-20T05:46:31.518Z,101311.84
2022-08-20T05:49:00.143Z,101307.69
2022-08-20T05:51:28.192Z,101317.59
2022-08-20T05:53:55.281Z,101316.53
2022-08-20T05:56:27.076Z,101320.81
2022-08-20T05:58:54.043Z,101323.00
2022-08-20T06:01:20.951Z,101323.16
2022-08-20T06:04:07.141Z,101325.50
2022-08-20T06:06:45.813Z,101323.94
2022-08-20T06:09:30.720Z,101316.34
2022-08-20T06:12:01.043Z,101320.50
2022-08-20T06:14:27.707Z,101318.41
2022-08-20T06:16:57.654Z,101317.63
2022-08-20T06:19:26.580Z,101320.38
2022-08-20T06:21:53.827Z,101319.88
2022-08-20T06:24:21.599Z,101319.19
2022-08-20T06:26:48.299Z,101313.78
2022-08-20T06:29:15.840Z,101317.56
2022-08-20T06:31:42.432Z,101311.91
2022-08-20T06:34:09.047Z,101324.19
2022-08-20T06:36:36.651Z,101318.34
2022-08-20T06:39:03.723Z,101313.41
2022-08-20T06:41:35.955Z,101317.00
2022-08-20T06:44:03.843Z,101323.88
2022-08-20T06:46:32.279Z,101321.66
2022-08-20T06:48:59.307Z,101325.22
2022-08-20T06:51:25.830Z,101321.34
2022-08-20T06:53:52.366Z,101313.34
2022-08-20T06:56:18.906Z,101323.50
2022-08-20T06:58:45.554Z,101329.91
2022-08-20T07:01:13.659Z,101330.03
2022-08-20T07:03:42.331Z,101330.50
2022-08-20T07:09:41.312Z,101332.84
2022-08-20T07:15:39.909Z,101338.47
2022-08-20T07:18:37.767Z,101345.22
2022-08-20T07:21:17.235Z,101347.59
2022-08-20T07:24:17.370Z,101346.97
2022-08-20T07:26:58.674Z,101339.94
2022-08-20T07:30:03.068Z,101351.00
2022-08-20T07:39:08.300Z,101351.38
2022-08-20T07:42:15.812Z,101349.28
2022-08-20T07:48:31.079Z,101361.13
2022-08-20T07:51:30.853Z,101363.63
2022-08-20T07:54:13.735Z,101369.13
2022-08-20T07:57:18.889Z,101373.16
2022-08-20T08:00:01.511Z,101373.41
2022-08-20T08:03:06.137Z,101371.19
2022-08-20T08:09:18.463Z,101379.16
2022-08-20T08:12:12.595Z,101384.66
2022-08-20T08:15:15.228Z,101391.72
2022-08-20T08:18:18.434Z,101392.16
2022-08-20T08:21:31.943Z,101395.44
2022-08-20T08:24:57.270Z,101389.94
2022-08-20T08:28:02.413Z,101386.28
2022-08-20T08:30:58.044Z,101387.44
2022-08-20T08:33:57.287Z,101385.63
2022-08-20T08:37:23.164Z,101390.13
2022-08-20T08:40:26.774Z,101380.72
2022-08-20T08:46:26.061Z,101386.56
2022-08-20T08:49:16.709Z,101386.41
2022-08-20T08:58:34.888Z,101388.56
2022-08-20T09:01:54.948Z,101384.06
2022-08-20T09:04:52.811Z,101392.13
2022-08-20T09:07:55.181Z,101396.41
2022-08-20T09:10:43.675Z,101392.19
2022-08-20T09:13:39.255Z,101393.56
2022-08-20T09:16:52.822Z,101400.94
2022-08-20T09:19:40.772Z,101396.63
2022-08-20T09:22:23.475Z,101399.88
2022-08-20T09:25:13.137Z,101396.59
2022-08-20T09:28:25.584Z,101396.81
2022-08-20T09:31:29.351Z,101399.06
2022-08-20T09:36:53.774Z,101401.94
2022-08-20T09:39:21.379Z,101399.03
2022-08-20T09:41:47.958Z,101398.69
2022-08-20T09:44:14.493Z,101402.56
2022-08-20T09:46:41.098Z,101410.72
2022-08-20T09:49:08.943Z,101413.09
2022-08-20T09:51:38.498Z,101406.88
2022-08-20T09:54:05.558Z,101403.41
2022-08-20T09:56:34.697Z,101399.47
2022-08-20T09:59:02.990Z,101398.56
2022-08-20T10:01:29.778Z,101394.63
2022-08-20T10:03:57.209Z,101399.28
2022-08-20T10:06:23.754Z,101396.31
2022-08-20T10:08:50.826Z,101396.53
2022-08-20T10:11:18.417Z,101393.94
2022-08-20T10:13:45.469Z,101397.19
2022-08-20T10:16:13.499Z,101400.72
2022-08-20T10:18:40.138Z,101401.81
2022-08-20T10:21:11.568Z,101398.34
2022-08-20T10:23:38.336Z,101411.03
2022-08-20T10:26:05.067Z,101403.19
2022-08-20T10:28:31.657Z,101400.34
2022-08-20T10:30:58.290Z,101387.34
2022-08-20T10:33:24.812Z,101388.69
2022-08-20T10:35:51.377Z,101395.97
2022-08-20T10:38:22.422Z,101396.91
2022-08-20T10:40:52.503Z,101397.94
2022-08-20T10:43:19.398Z,101398.97
2022-08-20T10:45:45.997Z,101397.84
2022-08-20T10:48:12.530Z,101397.09
2022-08-20T10:50:39.224Z,101394.47
2022-08-20T10:53:05.749Z,101392.41
2022-08-20T10:55:54.843Z,101399.78
2022-08-20T10:58:23.817Z,101399.56
2022-08-20T11:00:51.354Z,101397.41
2022-08-20T11:03:18.606Z,101398.22
2022-08-20T11:05:45.490Z,101396.63
2022-08-20T11:08:12.125Z,101395.94
2022-08-20T11:10:41.234Z,101389.91
2022-08-20T11:13:08.298Z,101385.03
2022-08-20T11:15:41.326Z,101389.91
2022-08-20T11:18:13.692Z,101379.28
2022-08-20T11:20:42.201Z,101393.59
2022-08-20T11:23:08.866Z,101390.91
2022-08-20T11:25:35.755Z,101389.59
2022-08-20T11:28:03.527Z,101395.28
2022-08-20T11:30:32.578Z,101402.16
2022-08-20T11:33:00.373Z,101401.28
2022-08-20T11:35:49.173Z,101392.91
2022-08-20T11:38:17.528Z,101391.59
2022-08-20T11:40:44.069Z,101399.13
2022-08-20T11:43:16.259Z,101403.53
2022-08-20T11:45:55.042Z,101410.44
2022-08-20T11:48:22.317Z,101399.44
2022-08-20T11:50:49.798Z,101410.31
2022-08-20T11:53:16.657Z,101401.81
2022-08-20T11:55:44.018Z,101397.84
2022-08-20T11:58:11.307Z,101406.09
2022-08-20T12:00:38.171Z,101399.06
2022-08-20T12:03:09.363Z,101403.97
2022-08-20T12:05:39.362Z,101402.94
2022-08-20T12:08:06.707Z,101404.16
2022-08-20T12:10:33.712Z,101391.63
2022-08-20T12:13:00.372Z,101403.16
2022-08-20T12:15:29.491Z,101403.25
2022-08-20T12:17:56.378Z,101400.75
2022-08-20T12:20:25.387Z,101392.34
2022-08-20T12:22:53.925Z,101396.28
2022-08-20T12:25:21.662Z,101392.31
2022-08-20T12:27:48.266Z,101395.47
2022-08-20T12:30:19.947Z,101398.97
2022-08-20T12:32:48.087Z,101391.31
2022-08-20T12:35:18.022Z,101396.22
2022-08-20T12:37:45.887Z,101392.28
2022-08-20T12:40:17.108Z,101393.63
2022-08-20T12:42:51.118Z,101400.91
2022-08-20T12:45:18.293Z,101398.91
2022-08-20T12:47:47.702Z,101392.09
2022-08-20T12:50:21.601Z,101389.53
2022-08-20T12:52:49.143Z,101396.41
2022-08-20T12:55:19.256Z,101391.31
2022-08-20T12:57:51.608Z,101396.72
2022-08-20T13:00:31.072Z,101395.75
2022-08-20T13:03:00.901Z,101398.34
2022-08-20T13:05:28.997Z,101395.84
2022-08-20T13:07:56.285Z,101390.72
2022-08-20T13:10:29.815Z,101392.56
2022-08-20T13:12:56.684Z,101393.06
2022-08-20T13:15:24.419Z,101383.03
2022-08-20T13:17:54.891Z,101391.19
2022-08-20T13:20:25.627Z,101390.19
2022-08-20T13:22:58.129Z,101397.19
2022-08-20T13:25:25.608Z,101386.22
2022-08-20T13:27:58.727Z,101383.34
2022-08-20T13:30:25.769Z,101392.50
2022-08-20T13:32:52.607Z,101385.94
2022-08-20T13:35:19.816Z,101381.47
2022-08-20T13:37:48.670Z,101375.13
2022-08-20T13:40:16.184Z,101376.72
2022-08-20T13:42:42.999Z,101363.13
2022-08-20T13:45:10.786Z,101368.69
2022-08-20T13:47:38.981Z,101363.56
2022-08-20T13:50:13.264Z,101353.53
2022-08-20T13:52:42.758Z,101357.56
2022-08-20T13:55:11.585Z,101358.66
2022-08-20T13:57:39.203Z,101366.88
2022-08-20T14:00:11.080Z,101353.81
2022-08-20T14:02:38.061Z,101354.63
2022-08-20T14:05:05.006Z,101354.94
2022-08-20T14:07:32.719Z,101355.13
2022-08-20T14:10:07.642Z,101343.38
2022-08-20T14:12:34.294Z,101349.81
2022-08-20T14:15:00.871Z,101345.88
2022-08-20T14:17:30.213Z,101355.22
2022-08-20T14:20:10.640Z,101351.47
2022-08-20T14:22:37.332Z,101349.13
2022-08-20T14:25:05.950Z,101347.50
2022-08-20T14:27:34.012Z,101354.13
2022-08-20T14:30:01.907Z,101358.09
2022-08-20T14:32:28.581Z,101356.47
2022-08-20T14:34:58.191Z,101359.47
2022-08-20T14:37:26.252Z,101361.28
2022-08-20T14:39:56.893Z,101358.31
2022-08-20T14:42:24.253Z,101369.22
2022-08-20T14:44:51.334Z,101361.56
2022-08-20T14:47:30.266Z,101358.66
2022-08-20T14:50:02.198Z,101355.19
2022-08-20T14:52:29.452Z,101351.16
2022-08-20T14:54:56.170Z,101354.59
2022-08-20T14:57:23.516Z,101361.16
2022-08-20T14:59:53.294Z,101367.50
2022-08-20T15:02:20.321Z,101363.72
2022-08-20T15:04:54.419Z,101365.00
2022-08-20T15:07:26.886Z,101360.25
2022-08-20T15:09:54.450Z,101361.66
2022-08-20T15:12:21.781Z,101362.50
2022-08-20T15:14:49.103Z,101366.03
2022-08-20T15:17:24.918Z,101366.81
2022-08-20T15:19:52.354Z,101364.41
2022-08-20T15:22:20.216Z,101369.88
2022-08-20T15:24:47.838Z,101364.75
2022-08-20T15:27:22.735Z,101369.25
2022-08-20T15:29:51.085Z,101370.81
2022-08-20T15:32:18.563Z,101369.53
2022-08-20T15:34:45.603Z,101375.69
2022-08-20T15:37:18.995Z,101368.53
2022-08-20T15:39:45.782Z,101359.97
2022-08-20T15:42:15.444Z,101367.06
2022-08-20T15:44:42.686Z,101374.19
2022-08-20T15:47:28.102Z,101368.50
2022-08-20T15:50:18.687Z,101379.16
2022-08-20T15:52:45.440Z,101365.84
2022-08-20T15:55:14.912Z,101371.97
2022-08-20T15:57:58.565Z,101366.41
2022-08-20T16:00:34.468Z,101364.81
2022-08-20T16:03:13.278Z,101363.28
2022-08-20T16:05:52.083Z,101359.63
2022-08-20T16:08:46.248Z,101372.44
2022-08-20T16:11:18.267Z,101358.03
2022-08-20T16:13:50.677Z,101359.84
2022-08-20T16:16:40.046Z,101365.44
2022-08-20T16:19:16.128Z,101361.66
2022-08-20T16:21:44.689Z,101351.00
2022-08-20T16:24:13.949Z,101356.31
2022-08-20T16:26:53.298Z,101353.13
2022-08-20T16:29:38.297Z,101362.41
2022-08-20T16:32:10.440Z,101358.97
2022-08-20T16:34:58.548Z,101360.34
2022-08-20T16:37:48.098Z,101367.19
2022-08-20T16:40:26.575Z,101360.72
2022-08-20T16:42:57.016Z,101356.91
2022-08-20T16:45:50.818Z,101353.44
2022-08-20T16:48:18.560Z,101352.31
2022-08-20T16:50:59.032Z,101359.16
2022-08-20T16:53:26.363Z,101365.69
2022-08-20T16:55:54.629Z,101366.94
2022-08-20T16:58:21.244Z,101360.75
2022-08-20T17:00:48.171Z,101361.94
2022-08-20T17:03:31.359Z,101365.63
2022-08-20T17:06:46.856Z,101372.59
2022-08-20T17:09:14.754Z,101361.31
2022-08-20T17:12:07.042Z,101366.31
2022-08-20T17:14:50.369Z,101379.84
2022-08-20T17:17:39.046Z,101373.19
2022-08-20T17:20:19.957Z,101362.19
2022-08-20T17:23:09.454Z,101369.56
2022-08-20T17:25:38.415Z,101372.22
2022-08-20T17:28:19.792Z,101372.41
2022-08-20T17:30:47.543Z,101363.91
2022-08-20T17:33:33.064Z,101373.63
2022-08-20T17:36:11.258Z,101368.81
2022-08-20T17:38:46.522Z,101371.47
2022-08-20T17:41:22.297Z,101371.72
2022-08-20T17:43:58.266Z,101372.44
2022-08-20T17:46:28.393Z,101374.78
2022-08-20T17:48:57.627Z,101374.47
2022-08-20T17:51:36.553Z,101374.38
2022-08-20T17:54:20.278Z,101379.38
2022-08-20T17:56:46.860Z,101375.84
2022-08-20T18:00:00.664Z,101378.69
2022-08-20T18:02:29.349Z,101388.41
2022-08-20T18:04:56.060Z,101384.06
2022-08-20T18:07:45.050Z,101380.78
2022-08-20T18:10:20.783Z,101387.03
2022-08-20T18:13:24.880Z,101382.31
2022-08-20T18:15:56.473Z,101375.03
2022-08-20T18:18:56.599Z,101382.56
2022-08-20T18:22:01.455Z,101387.69
2022-08-20T18:24:38.417Z,101391.53
2022-08-20T18:27:11.608Z,101393.63
2022-08-20T18:29:42.788Z,101400.75
2022-08-20T18:32:39.268Z,101389.03
2022-08-20T18:35:12.209Z,101390.06
2022-08-20T18:37:40.008Z,101384.19
2022-08-20T18:40:29.842Z,101395.50
2022-08-20T18:43:10.673Z,101396.22
2022-08-20T18:45:37.431Z,101402.47
2022-08-20T18:48:05.755Z,101397.88
2022-08-20T18:50:38.347Z,101405.00
2022-08-20T18:53:23.676Z,101400.16
2022-08-20T18:56:13.525Z,101395.78
2022-08-20T18:59:15.534Z,101403.53
2022-08-20T19:01:43.625Z,101412.41
2022-08-20T19:04:32.006Z,101410.22
2022-08-20T19:07:04.769Z,101418.63
2022-08-20T19:10:09.459Z,101416.34
2022-08-20T19:13:04.328Z,101424.06
2022-08-20T19:15:33.545Z,101421.53
2022-08-20T19:18:10.420Z,101425.94
2022-08-20T19:20:51.260Z,101431.09
2022-08-20T19:23:20.921Z,101442.25
2022-08-20T19:26:06.545Z,101441.41
2022-08-20T19:28:55.314Z,101441.50
2022-08-20T19:31:28.351Z,101443.00
2022-08-20T19:34:20.121Z,101449.31
2022-08-20T19:37:35.589Z,101453.00
2022-08-20T19:39:59.621Z,101456.69
2022-08-20T19:42:32.266Z,101447.13
2022-08-20T19:45:03.179Z,101447.59
2022-08-20T19:47:52.603Z,101456.78
2022-08-20T19:50:31.792Z,101454.38
2022-08-20T19:53:17.196Z,101455.72
2022-08-20T19:55:44.518Z,101458.72
2022-08-20T19:58:26.389Z,101459.97
2022-08-20T20:00:55.303Z,101464.56
2022-08-20T20:03:32.126Z,101462.00
2022-08-20T20:06:02.817Z,101463.69
2022-08-20T20:08:40.175Z,101459.47
2022-08-20T20:11:07.448Z,101463.94
2022-08-20T20:13:37.657Z,101457.84
2022-08-20T20:16:06.979Z,101462.31
2022-08-20T20:18:41.791Z,101465.84
2022-08-20T20:21:16.515Z,101459.41
2022-08-20T20:23:56.801Z,101462.25
2022-08-20T20:26:24.537Z,101456.41
2022-08-20T20:28:59.978Z,101462.13
2022-08-20T20:31:32.644Z,101456.47
2022-08-20T20:34:07.243Z,101458.38
2022-08-20T20:36:43.549Z,101454.81
2022-08-20T20:39:30.330Z,101455.25
2022-08-20T20:42:00.245Z,101451.66
2022-08-20T20:44:47.098Z,101456.16
2022-08-20T20:47:18.406Z,101454.16
2022-08-20T20:49:52.425Z,101445.06
2022-08-20T20:52:29.528Z,101453.44
2022-08-20T20:55:10.986Z,101446.53
2022-08-20T20:57:39.118Z,101450.06
2022-08-20T21:00:13.781Z,101455.44
2022-08-20T21:02:40.950Z,101453.06
2022-08-20T21:05:08.189Z,101449.25
2022-08-20T21:07:34.903Z,101452.75
2022-08-20T21:10:01.627Z,101444.25
2022-08-20T21:12:28.195Z,101442.06
2022-08-20T21:14:54.835Z,101439.25
2022-08-20T21:17:23.015Z,101444.72
2022-08-20T21:19:51.195Z,101441.31
2022-08-20T21:22:19.658Z,101446.00
2022-08-20T21:24:51.252Z,101444.59
2022-08-20T21:27:24.504Z,101448.63
2022-08-20T21:29:51.687Z,101451.88
2022-08-20T21:32:19.379Z,101449.00
2022-08-20T21:34:46.087Z,101446.75
2022-08-20T21:37:13.410Z,101449.38
2022-08-20T21:39:40.377Z,101446.53
2022-08-20T21:42:18.566Z,101449.19
2022-08-20T21:44:55.724Z,101442.50
2022-08-20T21:47:22.398Z,101441.69
2022-08-20T21:49:49.002Z,101447.38
2022-08-20T21:52:15.610Z,101444.38
2022-08-20T21:54:42.218Z,101432.41
2022-08-20T21:57:17.083Z,101436.53
2022-08-20T21:59:43.715Z,101432.25
2022-08-20T22:02:10.327Z,101435.34
2022-08-20T22:04:37.384Z,101436.00
2022-08-20T22:07:04.589Z,101431.16
2022-08-20T22:09:32.966Z,101437.25
2022-08-20T22:12:02.710Z,101434.66
2022-08-20T22:14:30.256Z,101438.16
2022-08-20T22:16:57.961Z,101427.69
2022-08-20T22:19:24.697Z,101426.88
2022-08-20T22:21:54.662Z,101430.16
2022-08-20T22:24:29.523Z,101424.94
2022-08-20T22:26:56.161Z,101431.88
2022-08-20T22:29:22.932Z,101433.31
2022-08-20T22:31:49.555Z,101428.91
2022-08-20T22:34:19.235Z,101431.81
2022-08-20T22:36:46.701Z,101431.81
2022-08-20T22:39:14.293Z,101427.38
2022-08-20T22:41:42.053Z,101429.41
2022-08-20T22:44:08.669Z,101433.69
2022-08-20T22:46:42.462Z,101432.50
2022-08-20T22:49:13.319Z,101428.06
2022-08-20T22:51:42.107Z,101432.13
2022-08-20T22:54:12.868Z,101425.47
2022-08-20T22:56:39.442Z,101425.53
2022-08-20T22:59:07.862Z,101428.81
2022-08-20T23:01:34.521Z,101417.13
2022-08-20T23:04:07.316Z,101422.63
2022-08-20T23:06:34.078Z,101427.09
2022-08-20T23:09:00.668Z,101422.91
2022-08-20T23:11:27.293Z,101428.78
2022-08-20T23:13:53.933Z,101424.34
2022-08-20T23:16:20.585Z,101426.00
2022-08-20T23:18:47.359Z,101422.94
2022-08-20T23:21:14.899Z,101417.91
2022-08-20T23:23:41.887Z,101416.31
2022-08-20T23:26:08.515Z,101414.50
2022-08-20T23:28:35.206Z,101416.13
2022-08-20T23:31:01.932Z,101422.00
2022-08-20T23:33:28.487Z,101409.69
2022-08-20T23:35:55.533Z,101404.25
2022-08-20T23:38:22.081Z,101407.88
2022-08-20T23:40:48.717Z,101402.66
2022-08-20T23:43:15.308Z,101399.00
2022-08-20T23:45:42.278Z,101397.19
2022-08-20T23:48:09.261Z,101396.19
2022-08-20T23:50:36.466Z,101388.72
2022-08-20T23:53:04.456Z,101389.13
2022-08-20T23:55:31.247Z,101382.66
2022-08-20T23:57:57.886Z,101385.47
